Time;durP1;ratioP1;P1;durP2;ratioP2;P2;SDS_P1;SDS_P2;PMS_P1;PMS_P2;Temp;Humidity;BMP_temperature;BMP_pressure;BME280_temperature;BME280_humidity;BME280_pressure;Samples;Min_cycle;Max_cycle;Signal;HPM_P1;HPM_P2
2021/12/24 00:03:05;;;;;;;9.30;4.70;;;9.00;99.90;;;;;;6666292;89;20677;-77
2021/12/24 00:13:13;;;;;;;10.05;5.25;;;9.20;99.90;;;;;;6740813;88;20231;-76
2021/12/24 00:43:43;;;;;;;11.25;5.65;;;9.60;99.90;;;;;;6756494;88;20200;-77
2021/12/24 01:03:44;;;;;;;8.75;5.00;;;9.60;99.90;;;;;;6755205;88;20244;-79
2021/12/24 01:13:45;;;;;;;10.10;4.45;;;9.40;99.90;;;;;;6740737;88;20197;-77
2021/12/24 01:23:55;;;;;;;8.33;4.83;;;9.50;99.90;;;;;;6738739;88;20726;-77
2021/12/24 01:44:15;;;;;;;4.18;2.65;;;9.50;99.90;;;;;;6755438;88;20180;-76
2021/12/24 01:54:16;;;;;;;3.10;1.80;;;9.60;99.90;;;;;;6755397;88;20193;-76
2021/12/24 02:04:18;;;;;;;3.80;1.80;;;9.70;99.90;;;;;;6755460;88;20215;-78
2021/12/24 02:14:22;;;;;;;2.95;1.60;;;9.70;99.90;;;;;;6738678;88;20198;-76
2021/12/24 02:34:42;;;;;;;3.33;1.20;;;10.00;99.90;;;;;;6742945;88;20197;-76
2021/12/24 02:44:45;;;;;;;2.97;1.40;;;10.00;99.90;;;;;;6754975;88;20227;-77
2021/12/24 02:54:45;;;;;;;3.35;1.73;;;9.90;99.90;;;;;;6754899;88;20204;-77
2021/12/24 03:14:49;;;;;;;5.95;1.80;;;9.80;99.90;;;;;;6730651;88;20267;-78
2021/12/24 03:24:50;;;;;;;6.57;1.92;;;9.80;99.90;;;;;;6720519;88;20246;-78
2021/12/24 03:34:51;;;;;;;5.33;1.97;;;9.80;99.90;;;;;;6718706;88;20194;-78
2021/12/24 03:45:05;;;;;;;5.75;2.03;;;9.90;99.90;;;;;;6716831;88;20531;-78
2021/12/24 03:55:06;;;;;;;8.38;2.40;;;9.80;99.90;;;;;;6719182;88;20205;-78
2021/12/24 04:05:07;;;;;;;6.97;2.15;;;9.60;99.90;;;;;;6724024;88;20198;-78
2021/12/24 04:15:08;;;;;;;5.80;2.10;;;9.60;99.90;;;;;;6728678;88;20661;-77
2021/12/24 04:25:09;;;;;;;5.72;2.30;;;9.60;99.90;;;;;;6720163;88;20214;-77
2021/12/24 04:35:47;;;;;;;8.68;2.15;;;9.60;99.90;;;;;;6720025;88;20243;-77
2021/12/24 05:06:31;;;;;;;6.37;2.53;;;9.80;99.90;;;;;;6718890;88;20181;-77
2021/12/24 05:16:48;;;;;;;7.07;2.58;;;9.90;99.90;;;;;;6718733;88;20338;-77
2021/12/24 05:26:51;;;;;;;4.78;1.90;;;9.80;99.90;;;;;;6735722;88;20181;-78
2021/12/24 05:36:52;;;;;;;5.12;2.30;;;10.00;99.90;;;;;;6718788;88;20197;-78
2021/12/24 05:46:53;;;;;;;5.30;2.10;;;9.90;99.90;;;;;;6717299;88;20350;-78
2021/12/24 05:56:53;;;;;;;5.15;2.28;;;10.00;99.90;;;;;;6716513;88;20181;-78
2021/12/24 06:06:54;;;;;;;6.50;2.37;;;10.00;99.90;;;;;;6734493;88;20214;-78
2021/12/24 06:17:02;;;;;;;4.53;2.27;;;9.90;99.90;;;;;;6734425;88;20289;-78
2021/12/24 06:27:04;;;;;;;4.87;1.83;;;9.90;99.90;;;;;;6711018;88;20554;-78
2021/12/24 06:37:04;;;;;;;7.07;2.60;;;9.90;99.90;;;;;;6716434;88;20193;-77
2021/12/24 06:47:05;;;;;;;6.17;2.33;;;9.80;99.90;;;;;;6717143;88;20182;-78
2021/12/24 06:57:12;;;;;;;8.00;2.45;;;9.80;99.90;;;;;;6715295;88;20548;-77
2021/12/24 07:07:13;;;;;;;7.10;2.30;;;9.80;99.90;;;;;;6719960;88;20206;-78
2021/12/24 07:17:13;;;;;;;7.57;2.40;;;9.80;99.90;;;;;;6708433;88;20230;-78
2021/12/24 07:27:14;;;;;;;6.75;2.33;;;9.60;99.90;;;;;;6690491;88;20197;-78
2021/12/24 07:37:14;;;;;;;6.82;2.70;;;9.60;99.90;;;;;;6707358;88;20205;-77
2021/12/24 07:47:26;;;;;;;9.02;2.60;;;9.60;99.90;;;;;;6707819;88;20224;-77
2021/12/24 07:57:27;;;;;;;6.37;2.15;;;9.60;99.90;;;;;;6708213;88;20199;-77
2021/12/24 08:07:27;;;;;;;6.72;2.15;;;9.80;99.90;;;;;;6732900;88;20189;-78
2021/12/24 08:17:28;;;;;;;10.73;2.50;;;9.80;99.90;;;;;;6726000;88;20232;-78
2021/12/24 08:27:28;;;;;;;6.87;2.50;;;9.80;99.90;;;;;;6724780;88;20201;-77
2021/12/24 08:37:29;;;;;;;8.63;2.33;;;9.70;99.90;;;;;;6726716;88;20218;-77
2021/12/24 08:47:30;;;;;;;7.60;2.20;;;9.80;99.90;;;;;;6722924;88;20355;-77
2021/12/24 08:57:30;;;;;;;7.10;2.30;;;9.70;99.90;;;;;;6722365;88;20268;-78
2021/12/24 09:18:35;;;;;;;7.50;2.00;;;9.90;99.90;;;;;;6751891;88;20233;-78
2021/12/24 09:28:36;;;;;;;12.02;2.20;;;10.00;99.90;;;;;;6755232;88;20205;-77
2021/12/24 09:38:36;;;;;;;8.35;2.00;;;10.00;99.90;;;;;;6755077;88;20191;-78
2021/12/24 09:48:37;;;;;;;7.55;1.40;;;10.30;99.90;;;;;;6755224;88;20656;-77
2021/12/24 09:58:37;;;;;;;7.78;1.58;;;10.30;99.90;;;;;;6754385;88;20539;-77
2021/12/24 10:08:38;;;;;;;10.18;1.95;;;10.30;99.90;;;;;;6754591;87;20210;-79
2021/12/24 10:18:46;;;;;;;8.80;1.73;;;10.30;99.90;;;;;;6760058;88;20263;-79
2021/12/24 10:28:51;;;;;;;11.00;1.92;;;10.30;99.90;;;;;;6755604;88;20504;-79
2021/12/24 10:38:55;;;;;;;9.05;1.98;;;10.30;99.90;;;;;;6750133;88;20722;-79
2021/12/24 10:49:07;;;;;;;9.70;1.55;;;10.80;99.90;;;;;;6753184;88;20826;-79
2021/12/24 10:59:07;;;;;;;6.60;1.90;;;11.10;99.90;;;;;;6749709;88;20641;-78
2021/12/24 11:09:08;;;;;;;6.35;1.73;;;11.40;99.90;;;;;;6753241;87;20213;-79
2021/12/24 11:19:08;;;;;;;11.80;2.05;;;12.00;99.90;;;;;;6753741;88;20261;-78
2021/12/24 11:29:09;;;;;;;10.38;2.12;;;11.60;99.90;;;;;;6760271;88;20175;-79
2021/12/24 11:39:10;;;;;;;8.55;1.62;;;11.70;99.90;;;;;;6758647;88;20188;-78
2021/12/24 11:49:10;;;;;;;13.95;2.25;;;12.20;99.90;;;;;;6752266;88;20216;-79
2021/12/24 11:59:11;;;;;;;6.50;1.67;;;11.90;99.90;;;;;;6752331;88;20190;-78
2021/12/24 12:09:12;;;;;;;7.65;1.73;;;12.10;99.90;;;;;;6751274;87;20207;-79
2021/12/24 12:19:29;;;;;;;6.75;1.60;;;12.00;99.90;;;;;;6755138;88;20736;-79
2021/12/24 12:29:43;;;;;;;6.20;1.50;;;11.60;99.90;;;;;;6751123;88;20679;-78
2021/12/24 12:39:46;;;;;;;9.25;1.67;;;11.40;99.90;;;;;;6755123;88;20227;-78
2021/12/24 12:49:47;;;;;;;8.30;2.15;;;11.70;99.90;;;;;;6754990;88;20195;-78
2021/12/24 13:00:06;;;;;;;5.75;1.70;;;11.50;99.90;;;;;;6753236;88;20290;-78
2021/12/24 13:10:07;;;;;;;8.50;1.58;;;11.30;99.90;;;;;;6754158;88;20372;-79
2021/12/24 13:20:15;;;;;;;9.02;1.70;;;11.00;99.90;;;;;;6754007;88;20762;-77
2021/12/24 13:30:19;;;;;;;7.95;1.73;;;10.90;99.90;;;;;;6754567;88;20171;-78
2021/12/24 13:40:28;;;;;;;10.68;1.87;;;10.80;99.90;;;;;;6750106;88;20245;-77
2021/12/24 14:01:00;;;;;;;6.15;1.77;;;10.50;99.90;;;;;;6753980;88;20184;-78
2021/12/24 14:11:11;;;;;;;10.27;2.30;;;10.60;99.90;;;;;;6753071;88;20208;-77
2021/12/24 14:31:22;;;;;;;8.68;2.00;;;10.50;99.90;;;;;;6758908;88;20791;-77
2021/12/24 14:41:23;;;;;;;11.32;2.65;;;10.60;99.90;;;;;;6753046;88;20242;-78
2021/12/24 14:51:28;;;;;;;11.18;2.45;;;10.40;99.90;;;;;;6749075;88;20708;-79
2021/12/24 15:11:33;;;;;;;6.93;2.33;;;10.20;99.90;;;;;;6692328;77;20218;-79
2021/12/24 15:21:35;;;;;;;14.15;3.20;;;10.00;99.90;;;;;;6666985;89;20185;-77
2021/12/24 15:31:36;;;;;;;11.60;3.28;;;9.90;99.90;;;;;;6666613;89;20709;-77
2021/12/24 15:41:37;;;;;;;9.73;2.90;;;9.90;99.90;;;;;;6668103;89;20615;-77
2021/12/24 15:51:38;;;;;;;8.10;2.75;;;9.90;99.90;;;;;;6669007;89;20238;-77
2021/12/24 16:01:39;;;;;;;10.55;3.20;;;9.70;99.90;;;;;;6668871;89;20179;-76
2021/12/24 16:11:39;;;;;;;11.65;3.10;;;9.60;99.90;;;;;;6669772;89;20207;-76
2021/12/24 16:21:40;;;;;;;12.35;3.17;;;9.50;99.90;;;;;;6668961;89;20217;-77
2021/12/24 16:31:41;;;;;;;9.55;2.80;;;9.50;99.90;;;;;;6669312;89;20221;-77
2021/12/24 16:41:46;;;;;;;16.92;3.65;;;9.50;99.90;;;;;;6669324;89;20214;-76
2021/12/24 16:51:47;;;;;;;16.58;3.72;;;9.40;99.90;;;;;;6668548;89;20396;-77
2021/12/24 17:01:50;;;;;;;13.15;3.47;;;9.40;99.90;;;;;;6668673;89;20229;-76
2021/12/24 17:11:50;;;;;;;15.85;4.10;;;9.30;99.90;;;;;;6668275;89;20226;-76
2021/12/24 17:21:51;;;;;;;12.68;3.55;;;9.30;99.90;;;;;;6668026;89;20323;-76
2021/12/24 17:31:52;;;;;;;16.12;4.28;;;9.30;99.90;;;;;;6668406;89;20245;-77
2021/12/24 17:41:52;;;;;;;17.17;5.30;;;9.20;99.90;;;;;;6669313;89;20670;-76
2021/12/24 17:51:57;;;;;;;15.65;4.30;;;9.00;99.90;;;;;;6669210;89;20250;-76
2021/12/24 18:01:57;;;;;;;17.05;6.05;;;8.90;99.90;;;;;;6668495;89;20191;-77
2021/12/24 18:11:58;;;;;;;15.45;5.05;;;8.70;99.90;;;;;;6667739;89;20689;-77
2021/12/24 18:21:58;;;;;;;15.90;4.50;;;8.40;99.90;;;;;;6668067;89;20229;-76
2021/12/24 18:31:59;;;;;;;11.80;4.28;;;8.70;99.90;;;;;;6667953;89;20506;-76
2021/12/24 18:42:01;;;;;;;14.80;4.43;;;8.70;99.90;;;;;;6667812;89;20599;-77
2021/12/24 18:52:02;;;;;;;11.48;3.87;;;8.80;99.90;;;;;;6667688;89;20366;-77
2021/12/24 19:02:03;;;;;;;11.52;5.07;;;8.80;99.90;;;;;;6667886;89;20577;-79
2021/12/24 19:12:04;;;;;;;11.52;4.50;;;8.70;99.90;;;;;;6667470;89;20204;-79
2021/12/24 19:22:04;;;;;;;9.05;4.20;;;8.60;99.90;;;;;;6666921;89;20202;-79
2021/12/24 19:32:07;;;;;;;8.57;4.55;;;8.70;99.90;;;;;;6666385;89;20215;-79
2021/12/24 19:42:08;;;;;;;7.93;3.85;;;8.60;99.90;;;;;;6666696;89;20207;-77
2021/12/24 19:52:09;;;;;;;11.90;4.07;;;8.50;99.90;;;;;;6663378;89;20200;-79
2021/12/24 20:02:10;;;;;;;13.23;4.90;;;8.50;99.90;;;;;;6663588;89;20262;-77
2021/12/24 20:12:10;;;;;;;17.37;6.78;;;8.50;99.90;;;;;;6666409;89;20225;-79
2021/12/24 20:22:11;;;;;;;13.83;6.00;;;8.70;99.90;;;;;;6665813;89;20207;-76
2021/12/24 20:32:11;;;;;;;15.40;7.43;;;8.60;99.90;;;;;;6669028;89;21025;-77
2021/12/24 20:42:12;;;;;;;10.10;4.70;;;8.60;99.90;;;;;;6669020;89;20706;-79
2021/12/24 20:52:12;;;;;;;11.60;4.57;;;8.40;99.90;;;;;;6670898;89;20220;-79
2021/12/24 21:02:14;;;;;;;15.75;5.57;;;8.50;99.90;;;;;;6676827;77;20223;-78
2021/12/24 21:12:15;;;;;;;12.25;6.15;;;8.50;99.90;;;;;;6715266;88;20186;-79
2021/12/24 21:22:15;;;;;;;10.23;3.97;;;8.50;99.90;;;;;;6717746;88;20328;-80
2021/12/24 21:32:17;;;;;;;9.47;3.73;;;8.60;99.90;;;;;;6727997;88;20546;-79
2021/12/24 21:42:17;;;;;;;9.07;3.80;;;8.50;99.90;;;;;;6718579;88;21087;-78
2021/12/24 21:52:18;;;;;;;9.27;3.90;;;8.50;99.90;;;;;;6712002;88;20353;-80
2021/12/24 22:02:19;;;;;;;9.30;4.25;;;8.40;99.90;;;;;;6711306;88;20668;-78
2021/12/24 22:12:19;;;;;;;11.23;5.03;;;8.30;99.90;;;;;;6729678;88;20207;-78
2021/12/24 22:22:30;;;;;;;12.33;5.13;;;8.20;99.90;;;;;;6741679;88;20197;-78
2021/12/24 22:32:31;;;;;;;13.65;5.95;;;8.10;99.90;;;;;;6745565;88;20513;-78
2021/12/24 22:42:32;;;;;;;10.45;5.10;;;8.30;99.90;;;;;;6754745;88;20236;-76
2021/12/24 23:02:39;;;;;;;;;;;8.30;99.90;;;;;;6747889;88;20275;-77
2021/12/24 23:12:40;;;;;;;11.02;5.90;;;8.70;99.90;;;;;;6745716;88;20476;-77
2021/12/24 23:22:41;;;;;;;9.45;5.28;;;8.50;99.90;;;;;;6744544;88;20173;-78
2021/12/24 23:32:43;;;;;;;13.27;5.35;;;8.20;99.90;;;;;;6745312;88;20243;-78
2021/12/24 23:42:45;;;;;;;9.40;4.72;;;8.10;99.90;;;;;;6745246;88;20216;-78
2021/12/24 23:52:58;;;;;;;9.27;5.00;;;8.10;99.90;;;;;;6744320;88;20184;-79
